sensor_id;sensor_type;location;lat;lon;timestamp;P1;durP1;ratioP1;P2;durP2;ratioP2
50301;SDS011;36550;50.472;19.744;2023-08-24T00:00:15;7.40;;;2.70;;
50301;SDS011;36550;50.472;19.744;2023-08-24T00:03:00;5.60;;;2.80;;
50301;SDS011;36550;50.472;19.744;2023-08-24T00:05:47;7.90;;;2.90;;
50301;SDS011;36550;50.472;19.744;2023-08-24T00:08:31;5.60;;;2.50;;
50301;SDS011;36550;50.472;19.744;2023-08-24T00:11:16;6.80;;;2.80;;
50301;SDS011;36550;50.472;19.744;2023-08-24T00:14:00;5.80;;;2.60;;
50301;SDS011;36550;50.472;19.744;2023-08-24T00:16:44;5.90;;;2.90;;
50301;SDS011;36550;50.472;19.744;2023-08-24T00:19:29;4.60;;;2.40;;
50301;SDS011;36550;50.472;19.744;2023-08-24T00:22:13;3.40;;;2.10;;
50301;SDS011;36550;50.472;19.744;2023-08-24T00:24:57;6.70;;;2.80;;
50301;SDS011;36550;50.472;19.744;2023-08-24T00:27:41;4.00;;;2.50;;
50301;SDS011;36550;50.472;19.744;2023-08-24T00:30:25;5.60;;;2.60;;
50301;SDS011;36550;50.472;19.744;2023-08-24T00:33:09;7.30;;;2.90;;
50301;SDS011;36550;50.472;19.744;2023-08-24T00:35:53;5.40;;;2.70;;
50301;SDS011;36550;50.472;19.744;2023-08-24T00:38:36;4.50;;;2.70;;
50301;SDS011;36550;50.472;19.744;2023-08-24T00:41:20;9.20;;;2.90;;
50301;SDS011;36550;50.472;19.744;2023-08-24T00:44:06;4.30;;;2.30;;
50301;SDS011;36550;50.472;19.744;2023-08-24T00:46:51;6.80;;;2.70;;
50301;SDS011;36550;50.472;19.744;2023-08-24T00:49:36;7.00;;;2.90;;
50301;SDS011;36550;50.472;19.744;2023-08-24T00:52:20;7.10;;;2.80;;
50301;SDS011;36550;50.472;19.744;2023-08-24T00:55:05;8.30;;;2.90;;
50301;SDS011;36550;50.472;19.744;2023-08-24T00:57:51;4.50;;;2.00;;
50301;SDS011;36550;50.472;19.744;2023-08-24T01:00:35;4.20;;;2.30;;
50301;SDS011;36550;50.472;19.744;2023-08-24T01:03:22;5.00;;;2.00;;
50301;SDS011;36550;50.472;19.744;2023-08-24T01:06:07;4.70;;;2.10;;
50301;SDS011;36550;50.472;19.744;2023-08-24T01:08:51;3.50;;;2.10;;
50301;SDS011;36550;50.472;19.744;2023-08-24T01:17:46;7.40;;;2.80;;
50301;SDS011;36550;50.472;19.744;2023-08-24T01:20:34;6.30;;;2.30;;
50301;SDS011;36550;50.472;19.744;2023-08-24T01:26:37;4.70;;;1.90;;
50301;SDS011;36550;50.472;19.744;2023-08-24T01:29:22;2.90;;;2.00;;
50301;SDS011;36550;50.472;19.744;2023-08-24T01:32:09;4.50;;;2.10;;
50301;SDS011;36550;50.472;19.744;2023-08-24T01:34:55;5.80;;;2.40;;
50301;SDS011;36550;50.472;19.744;2023-08-24T01:37:39;6.40;;;2.20;;
50301;SDS011;36550;50.472;19.744;2023-08-24T01:40:25;5.20;;;2.70;;
50301;SDS011;36550;50.472;19.744;2023-08-24T01:43:13;7.30;;;2.60;;
50301;SDS011;36550;50.472;19.744;2023-08-24T01:48:43;6.70;;;2.50;;
50301;SDS011;36550;50.472;19.744;2023-08-24T01:51:29;4.00;;;2.30;;
50301;SDS011;36550;50.472;19.744;2023-08-24T01:54:14;4.00;;;2.20;;
50301;SDS011;36550;50.472;19.744;2023-08-24T01:56:58;5.10;;;2.30;;
50301;SDS011;36550;50.472;19.744;2023-08-24T01:59:42;5.60;;;2.50;;
50301;SDS011;36550;50.472;19.744;2023-08-24T02:02:26;5.50;;;2.40;;
50301;SDS011;36550;50.472;19.744;2023-08-24T02:05:10;3.80;;;2.20;;
50301;SDS011;36550;50.472;19.744;2023-08-24T02:07:54;8.00;;;2.60;;
50301;SDS011;36550;50.472;19.744;2023-08-24T02:10:38;4.80;;;2.00;;
50301;SDS011;36550;50.472;19.744;2023-08-24T02:13:23;4.40;;;2.40;;
50301;SDS011;36550;50.472;19.744;2023-08-24T02:16:07;4.70;;;2.30;;
50301;SDS011;36550;50.472;19.744;2023-08-24T02:21:37;7.30;;;2.60;;
50301;SDS011;36550;50.472;19.744;2023-08-24T02:24:21;4.60;;;2.60;;
50301;SDS011;36550;50.472;19.744;2023-08-24T02:27:05;4.30;;;2.20;;
50301;SDS011;36550;50.472;19.744;2023-08-24T02:29:49;6.20;;;2.20;;
50301;SDS011;36550;50.472;19.744;2023-08-24T02:32:33;8.00;;;2.20;;
50301;SDS011;36550;50.472;19.744;2023-08-24T02:35:17;3.40;;;2.30;;
50301;SDS011;36550;50.472;19.744;2023-08-24T02:38:03;6.80;;;2.40;;
50301;SDS011;36550;50.472;19.744;2023-08-24T02:40:47;5.40;;;2.30;;
50301;SDS011;36550;50.472;19.744;2023-08-24T02:43:31;4.70;;;2.20;;
50301;SDS011;36550;50.472;19.744;2023-08-24T02:46:16;9.20;;;2.30;;
50301;SDS011;36550;50.472;19.744;2023-08-24T02:49:02;4.80;;;2.40;;
50301;SDS011;36550;50.472;19.744;2023-08-24T02:51:46;4.80;;;2.50;;
50301;SDS011;36550;50.472;19.744;2023-08-24T02:54:30;3.70;;;2.20;;
50301;SDS011;36550;50.472;19.744;2023-08-24T02:57:14;3.80;;;2.20;;
50301;SDS011;36550;50.472;19.744;2023-08-24T02:59:58;6.20;;;2.40;;
50301;SDS011;36550;50.472;19.744;2023-08-24T03:02:43;3.60;;;2.10;;
50301;SDS011;36550;50.472;19.744;2023-08-24T03:05:27;4.80;;;1.90;;
50301;SDS011;36550;50.472;19.744;2023-08-24T03:08:11;4.90;;;2.40;;
50301;SDS011;36550;50.472;19.744;2023-08-24T03:10:55;4.70;;;2.30;;
50301;SDS011;36550;50.472;19.744;2023-08-24T03:13:40;6.90;;;1.90;;
50301;SDS011;36550;50.472;19.744;2023-08-24T03:16:24;3.90;;;2.10;;
50301;SDS011;36550;50.472;19.744;2023-08-24T03:19:08;4.70;;;1.90;;
50301;SDS011;36550;50.472;19.744;2023-08-24T03:21:52;4.40;;;2.40;;
50301;SDS011;36550;50.472;19.744;2023-08-24T03:24:36;4.80;;;2.50;;
50301;SDS011;36550;50.472;19.744;2023-08-24T03:27:20;5.40;;;2.50;;
50301;SDS011;36550;50.472;19.744;2023-08-24T03:30:05;3.20;;;2.40;;
50301;SDS011;36550;50.472;19.744;2023-08-24T03:32:49;4.70;;;2.00;;
50301;SDS011;36550;50.472;19.744;2023-08-24T03:35:34;4.30;;;1.90;;
50301;SDS011;36550;50.472;19.744;2023-08-24T03:38:18;8.80;;;2.30;;
50301;SDS011;36550;50.472;19.744;2023-08-24T03:41:02;4.50;;;1.90;;
50301;SDS011;36550;50.472;19.744;2023-08-24T03:43:47;6.30;;;2.60;;
50301;SDS011;36550;50.472;19.744;2023-08-24T03:46:31;6.60;;;2.70;;
50301;SDS011;36550;50.472;19.744;2023-08-24T03:49:15;7.70;;;3.90;;
50301;SDS011;36550;50.472;19.744;2023-08-24T03:51:59;5.20;;;2.80;;
50301;SDS011;36550;50.472;19.744;2023-08-24T03:54:43;6.00;;;3.50;;
50301;SDS011;36550;50.472;19.744;2023-08-24T03:57:27;8.30;;;5.30;;
50301;SDS011;36550;50.472;19.744;2023-08-24T04:00:12;6.80;;;4.00;;
50301;SDS011;36550;50.472;19.744;2023-08-24T04:02:57;8.80;;;5.50;;
50301;SDS011;36550;50.472;19.744;2023-08-24T04:05:41;15.70;;;10.00;;
50301;SDS011;36550;50.472;19.744;2023-08-24T04:08:25;18.00;;;10.90;;
50301;SDS011;36550;50.472;19.744;2023-08-24T04:11:09;19.40;;;13.80;;
50301;SDS011;36550;50.472;19.744;2023-08-24T04:13:53;25.10;;;16.90;;
50301;SDS011;36550;50.472;19.744;2023-08-24T04:16:37;23.90;;;17.40;;
50301;SDS011;36550;50.472;19.744;2023-08-24T04:19:21;22.00;;;14.40;;
50301;SDS011;36550;50.472;19.744;2023-08-24T04:22:05;16.00;;;11.20;;
50301;SDS011;36550;50.472;19.744;2023-08-24T04:24:49;18.20;;;9.20;;
50301;SDS011;36550;50.472;19.744;2023-08-24T04:27:33;14.70;;;7.80;;
50301;SDS011;36550;50.472;19.744;2023-08-24T04:30:18;11.20;;;7.00;;
50301;SDS011;36550;50.472;19.744;2023-08-24T04:33:02;7.80;;;4.30;;
50301;SDS011;36550;50.472;19.744;2023-08-24T04:35:48;8.50;;;5.50;;
50301;SDS011;36550;50.472;19.744;2023-08-24T04:38:33;10.20;;;6.60;;
50301;SDS011;36550;50.472;19.744;2023-08-24T04:41:17;7.80;;;4.90;;
50301;SDS011;36550;50.472;19.744;2023-08-24T04:44:01;8.50;;;4.40;;
50301;SDS011;36550;50.472;19.744;2023-08-24T04:46:44;8.70;;;3.70;;
50301;SDS011;36550;50.472;19.744;2023-08-24T04:49:30;6.90;;;4.00;;
50301;SDS011;36550;50.472;19.744;2023-08-24T04:54:58;7.90;;;5.60;;
50301;SDS011;36550;50.472;19.744;2023-08-24T04:57:42;7.70;;;4.60;;
50301;SDS011;36550;50.472;19.744;2023-08-24T05:00:26;7.10;;;4.10;;
50301;SDS011;36550;50.472;19.744;2023-08-24T05:03:10;7.00;;;3.30;;
50301;SDS011;36550;50.472;19.744;2023-08-24T05:05:54;4.30;;;2.90;;
50301;SDS011;36550;50.472;19.744;2023-08-24T05:08:39;4.60;;;3.10;;
50301;SDS011;36550;50.472;19.744;2023-08-24T05:11:23;6.00;;;2.80;;
50301;SDS011;36550;50.472;19.744;2023-08-24T05:14:10;4.50;;;3.00;;
50301;SDS011;36550;50.472;19.744;2023-08-24T05:16:53;5.10;;;2.60;;
50301;SDS011;36550;50.472;19.744;2023-08-24T05:19:37;5.60;;;2.50;;
50301;SDS011;36550;50.472;19.744;2023-08-24T05:22:21;9.50;;;2.90;;
50301;SDS011;36550;50.472;19.744;2023-08-24T05:25:05;4.80;;;2.40;;
50301;SDS011;36550;50.472;19.744;2023-08-24T05:27:50;6.20;;;2.70;;
50301;SDS011;36550;50.472;19.744;2023-08-24T05:30:34;6.00;;;2.90;;
50301;SDS011;36550;50.472;19.744;2023-08-24T05:33:19;5.90;;;2.80;;
50301;SDS011;36550;50.472;19.744;2023-08-24T05:36:04;9.10;;;3.40;;
50301;SDS011;36550;50.472;19.744;2023-08-24T05:38:49;7.60;;;2.70;;
50301;SDS011;36550;50.472;19.744;2023-08-24T05:41:33;5.50;;;2.30;;
50301;SDS011;36550;50.472;19.744;2023-08-24T05:44:17;7.90;;;2.60;;
50301;SDS011;36550;50.472;19.744;2023-08-24T05:47:05;7.90;;;2.50;;
50301;SDS011;36550;50.472;19.744;2023-08-24T05:49:49;7.20;;;2.70;;
50301;SDS011;36550;50.472;19.744;2023-08-24T05:52:33;6.60;;;2.50;;
50301;SDS011;36550;50.472;19.744;2023-08-24T05:55:18;5.40;;;2.50;;
50301;SDS011;36550;50.472;19.744;2023-08-24T05:58:02;6.10;;;2.50;;
50301;SDS011;36550;50.472;19.744;2023-08-24T06:00:47;2.70;;;2.10;;
50301;SDS011;36550;50.472;19.744;2023-08-24T06:03:32;5.30;;;2.30;;
50301;SDS011;36550;50.472;19.744;2023-08-24T06:06:15;6.40;;;2.00;;
50301;SDS011;36550;50.472;19.744;2023-08-24T06:09:00;7.70;;;2.10;;
50301;SDS011;36550;50.472;19.744;2023-08-24T06:11:44;3.30;;;2.10;;
50301;SDS011;36550;50.472;19.744;2023-08-24T06:14:29;5.90;;;2.30;;
50301;SDS011;36550;50.472;19.744;2023-08-24T06:17:13;6.20;;;2.10;;
50301;SDS011;36550;50.472;19.744;2023-08-24T06:19:56;4.60;;;1.60;;
50301;SDS011;36550;50.472;19.744;2023-08-24T06:22:40;3.20;;;1.80;;
50301;SDS011;36550;50.472;19.744;2023-08-24T06:25:24;3.30;;;1.60;;
50301;SDS011;36550;50.472;19.744;2023-08-24T06:28:08;4.20;;;1.90;;
50301;SDS011;36550;50.472;19.744;2023-08-24T06:30:54;6.00;;;2.20;;
50301;SDS011;36550;50.472;19.744;2023-08-24T06:33:38;5.00;;;2.20;;
50301;SDS011;36550;50.472;19.744;2023-08-24T06:36:23;5.60;;;1.80;;
50301;SDS011;36550;50.472;19.744;2023-08-24T06:39:07;3.50;;;1.70;;
50301;SDS011;36550;50.472;19.744;2023-08-24T06:41:52;4.10;;;1.60;;
50301;SDS011;36550;50.472;19.744;2023-08-24T06:44:36;5.10;;;1.80;;
50301;SDS011;36550;50.472;19.744;2023-08-24T06:47:20;3.30;;;1.60;;
50301;SDS011;36550;50.472;19.744;2023-08-24T06:50:04;2.70;;;1.60;;
50301;SDS011;36550;50.472;19.744;2023-08-24T06:52:49;2.70;;;1.80;;
50301;SDS011;36550;50.472;19.744;2023-08-24T06:55:33;4.80;;;1.90;;
50301;SDS011;36550;50.472;19.744;2023-08-24T06:58:17;4.70;;;1.90;;
50301;SDS011;36550;50.472;19.744;2023-08-24T07:01:01;3.30;;;1.80;;
50301;SDS011;36550;50.472;19.744;2023-08-24T07:03:49;2.20;;;1.70;;
50301;SDS011;36550;50.472;19.744;2023-08-24T07:06:33;2.40;;;1.60;;
50301;SDS011;36550;50.472;19.744;2023-08-24T07:09:18;4.60;;;1.70;;
50301;SDS011;36550;50.472;19.744;2023-08-24T07:12:03;4.90;;;1.80;;
50301;SDS011;36550;50.472;19.744;2023-08-24T07:14:49;6.00;;;1.90;;
50301;SDS011;36550;50.472;19.744;2023-08-24T07:17:33;6.40;;;1.80;;
50301;SDS011;36550;50.472;19.744;2023-08-24T07:20:18;3.50;;;1.70;;
50301;SDS011;36550;50.472;19.744;2023-08-24T07:23:02;4.20;;;1.80;;
50301;SDS011;36550;50.472;19.744;2023-08-24T07:25:46;5.30;;;1.60;;
50301;SDS011;36550;50.472;19.744;2023-08-24T07:28:30;3.90;;;1.90;;
50301;SDS011;36550;50.472;19.744;2023-08-24T07:31:14;3.70;;;1.80;;
50301;SDS011;36550;50.472;19.744;2023-08-24T07:33:58;3.20;;;1.40;;
50301;SDS011;36550;50.472;19.744;2023-08-24T07:36:43;3.70;;;1.80;;
50301;SDS011;36550;50.472;19.744;2023-08-24T07:39:28;2.50;;;1.50;;
50301;SDS011;36550;50.472;19.744;2023-08-24T07:42:13;2.20;;;1.60;;
50301;SDS011;36550;50.472;19.744;2023-08-24T07:44:57;2.40;;;1.50;;
50301;SDS011;36550;50.472;19.744;2023-08-24T07:47:42;4.30;;;1.20;;
50301;SDS011;36550;50.472;19.744;2023-08-24T07:50:27;2.50;;;1.20;;
50301;SDS011;36550;50.472;19.744;2023-08-24T07:53:11;3.50;;;1.20;;
50301;SDS011;36550;50.472;19.744;2023-08-24T07:55:55;3.70;;;1.60;;
50301;SDS011;36550;50.472;19.744;2023-08-24T07:58:42;2.80;;;1.30;;
50301;SDS011;36550;50.472;19.744;2023-08-24T08:01:26;5.70;;;1.30;;
50301;SDS011;36550;50.472;19.744;2023-08-24T08:04:10;3.10;;;1.30;;
50301;SDS011;36550;50.472;19.744;2023-08-24T08:06:55;3.40;;;1.30;;
50301;SDS011;36550;50.472;19.744;2023-08-24T08:09:39;4.50;;;1.50;;
50301;SDS011;36550;50.472;19.744;2023-08-24T08:12:24;3.70;;;1.30;;
50301;SDS011;36550;50.472;19.744;2023-08-24T08:15:08;4.00;;;1.30;;
50301;SDS011;36550;50.472;19.744;2023-08-24T08:17:53;3.60;;;1.50;;
50301;SDS011;36550;50.472;19.744;2023-08-24T08:20:39;2.50;;;1.50;;
50301;SDS011;36550;50.472;19.744;2023-08-24T08:23:23;5.40;;;1.60;;
50301;SDS011;36550;50.472;19.744;2023-08-24T08:26:08;1.80;;;1.50;;
50301;SDS011;36550;50.472;19.744;2023-08-24T08:28:54;4.60;;;1.40;;
50301;SDS011;36550;50.472;19.744;2023-08-24T08:31:38;2.50;;;1.60;;
50301;SDS011;36550;50.472;19.744;2023-08-24T08:34:22;2.80;;;1.70;;
50301;SDS011;36550;50.472;19.744;2023-08-24T08:37:06;3.20;;;1.50;;
50301;SDS011;36550;50.472;19.744;2023-08-24T08:39:50;2.70;;;1.40;;
50301;SDS011;36550;50.472;19.744;2023-08-24T08:42:34;3.30;;;1.50;;
50301;SDS011;36550;50.472;19.744;2023-08-24T08:45:19;7.40;;;1.60;;
50301;SDS011;36550;50.472;19.744;2023-08-24T08:48:08;9.20;;;1.80;;
50301;SDS011;36550;50.472;19.744;2023-08-24T08:50:52;1.70;;;1.30;;
50301;SDS011;36550;50.472;19.744;2023-08-24T08:53:40;4.20;;;1.50;;
50301;SDS011;36550;50.472;19.744;2023-08-24T08:56:24;2.60;;;1.40;;
50301;SDS011;36550;50.472;19.744;2023-08-24T08:59:08;5.60;;;1.60;;
50301;SDS011;36550;50.472;19.744;2023-08-24T09:01:56;4.10;;;1.50;;
50301;SDS011;36550;50.472;19.744;2023-08-24T09:04:44;3.80;;;1.40;;
50301;SDS011;36550;50.472;19.744;2023-08-24T09:07:29;2.80;;;1.20;;
50301;SDS011;36550;50.472;19.744;2023-08-24T09:10:14;4.40;;;1.30;;
50301;SDS011;36550;50.472;19.744;2023-08-24T09:12:58;2.20;;;1.20;;
50301;SDS011;36550;50.472;19.744;2023-08-24T09:15:42;3.00;;;1.40;;
50301;SDS011;36550;50.472;19.744;2023-08-24T09:18:33;4.00;;;1.70;;
50301;SDS011;36550;50.472;19.744;2023-08-24T09:21:24;5.20;;;1.60;;
50301;SDS011;36550;50.472;19.744;2023-08-24T09:24:09;3.00;;;1.70;;
50301;SDS011;36550;50.472;19.744;2023-08-24T09:26:55;3.70;;;1.50;;
50301;SDS011;36550;50.472;19.744;2023-08-24T09:29:39;3.20;;;1.10;;
50301;SDS011;36550;50.472;19.744;2023-08-24T09:32:23;3.80;;;1.50;;
50301;SDS011;36550;50.472;19.744;2023-08-24T09:35:11;4.40;;;1.30;;
50301;SDS011;36550;50.472;19.744;2023-08-24T09:37:55;3.50;;;1.40;;
50301;SDS011;36550;50.472;19.744;2023-08-24T09:40:39;6.00;;;1.20;;
50301;SDS011;36550;50.472;19.744;2023-08-24T09:43:31;3.80;;;1.50;;
50301;SDS011;36550;50.472;19.744;2023-08-24T09:46:18;4.50;;;1.40;;
50301;SDS011;36550;50.472;19.744;2023-08-24T09:49:05;5.30;;;1.70;;
50301;SDS011;36550;50.472;19.744;2023-08-24T09:51:49;2.50;;;1.40;;
50301;SDS011;36550;50.472;19.744;2023-08-24T09:54:36;2.40;;;1.50;;
50301;SDS011;36550;50.472;19.744;2023-08-24T09:57:21;2.50;;;1.50;;
50301;SDS011;36550;50.472;19.744;2023-08-24T10:00:06;3.90;;;1.50;;
50301;SDS011;36550;50.472;19.744;2023-08-24T10:02:54;9.40;;;1.90;;
50301;SDS011;36550;50.472;19.744;2023-08-24T10:05:39;4.70;;;2.10;;
50301;SDS011;36550;50.472;19.744;2023-08-24T10:08:28;4.70;;;2.20;;
50301;SDS011;36550;50.472;19.744;2023-08-24T10:11:19;9.50;;;2.30;;
50301;SDS011;36550;50.472;19.744;2023-08-24T10:20:00;7.20;;;2.20;;
50301;SDS011;36550;50.472;19.744;2023-08-24T10:25:30;7.60;;;2.00;;
50301;SDS011;36550;50.472;19.744;2023-08-24T10:28:14;5.00;;;2.20;;
50301;SDS011;36550;50.472;19.744;2023-08-24T10:31:00;3.30;;;1.90;;
50301;SDS011;36550;50.472;19.744;2023-08-24T10:33:46;7.30;;;1.90;;
50301;SDS011;36550;50.472;19.744;2023-08-24T10:36:31;4.00;;;1.90;;
50301;SDS011;36550;50.472;19.744;2023-08-24T10:39:15;3.10;;;1.90;;
50301;SDS011;36550;50.472;19.744;2023-08-24T10:42:00;4.10;;;1.80;;
50301;SDS011;36550;50.472;19.744;2023-08-24T10:44:46;3.40;;;1.70;;
50301;SDS011;36550;50.472;19.744;2023-08-24T10:50:28;5.40;;;1.80;;
50301;SDS011;36550;50.472;19.744;2023-08-24T10:53:12;4.40;;;1.70;;
50301;SDS011;36550;50.472;19.744;2023-08-24T10:56:25;2.90;;;1.60;;
50301;SDS011;36550;50.472;19.744;2023-08-24T11:01:59;7.40;;;1.40;;
50301;SDS011;36550;50.472;19.744;2023-08-24T11:05:03;3.60;;;1.50;;
50301;SDS011;36550;50.472;19.744;2023-08-24T11:07:56;5.40;;;1.60;;
50301;SDS011;36550;50.472;19.744;2023-08-24T11:13:27;4.30;;;1.60;;
50301;SDS011;36550;50.472;19.744;2023-08-24T11:16:13;3.70;;;1.40;;
50301;SDS011;36550;50.472;19.744;2023-08-24T11:19:25;2.50;;;1.60;;
50301;SDS011;36550;50.472;19.744;2023-08-24T11:22:09;4.10;;;1.40;;
50301;SDS011;36550;50.472;19.744;2023-08-24T11:24:53;2.60;;;1.50;;
50301;SDS011;36550;50.472;19.744;2023-08-24T11:27:37;5.30;;;1.70;;
50301;SDS011;36550;50.472;19.744;2023-08-24T11:30:22;3.80;;;1.70;;
50301;SDS011;36550;50.472;19.744;2023-08-24T11:33:06;2.90;;;1.60;;
50301;SDS011;36550;50.472;19.744;2023-08-24T11:35:52;2.30;;;1.60;;
50301;SDS011;36550;50.472;19.744;2023-08-24T11:38:40;4.70;;;1.50;;
50301;SDS011;36550;50.472;19.744;2023-08-24T11:41:26;3.40;;;1.50;;
50301;SDS011;36550;50.472;19.744;2023-08-24T11:44:10;3.30;;;1.80;;
50301;SDS011;36550;50.472;19.744;2023-08-24T11:46:57;5.30;;;1.40;;
50301;SDS011;36550;50.472;19.744;2023-08-24T11:49:42;4.70;;;1.50;;
50301;SDS011;36550;50.472;19.744;2023-08-24T11:52:27;2.50;;;1.30;;
50301;SDS011;36550;50.472;19.744;2023-08-24T11:55:11;3.40;;;1.70;;
50301;SDS011;36550;50.472;19.744;2023-08-24T11:57:56;2.00;;;1.40;;
50301;SDS011;36550;50.472;19.744;2023-08-24T12:00:40;5.80;;;1.50;;
50301;SDS011;36550;50.472;19.744;2023-08-24T12:03:25;6.50;;;1.80;;
50301;SDS011;36550;50.472;19.744;2023-08-24T12:06:10;3.00;;;1.50;;
50301;SDS011;36550;50.472;19.744;2023-08-24T12:08:56;2.30;;;1.50;;
50301;SDS011;36550;50.472;19.744;2023-08-24T12:11:41;5.80;;;1.60;;
50301;SDS011;36550;50.472;19.744;2023-08-24T12:14:25;5.90;;;1.50;;
50301;SDS011;36550;50.472;19.744;2023-08-24T12:17:09;3.30;;;1.40;;
50301;SDS011;36550;50.472;19.744;2023-08-24T12:19:58;2.90;;;1.30;;
50301;SDS011;36550;50.472;19.744;2023-08-24T12:22:44;3.00;;;1.70;;
50301;SDS011;36550;50.472;19.744;2023-08-24T12:25:29;2.40;;;1.60;;
50301;SDS011;36550;50.472;19.744;2023-08-24T12:28:14;3.10;;;1.50;;
50301;SDS011;36550;50.472;19.744;2023-08-24T12:30:59;5.10;;;1.60;;
50301;SDS011;36550;50.472;19.744;2023-08-24T12:33:58;2.70;;;1.60;;
50301;SDS011;36550;50.472;19.744;2023-08-24T12:36:44;1.90;;;1.40;;
50301;SDS011;36550;50.472;19.744;2023-08-24T12:39:32;3.20;;;1.50;;
50301;SDS011;36550;50.472;19.744;2023-08-24T12:42:18;2.10;;;1.30;;
50301;SDS011;36550;50.472;19.744;2023-08-24T12:45:04;4.50;;;1.70;;
50301;SDS011;36550;50.472;19.744;2023-08-24T12:47:49;2.20;;;1.50;;
50301;SDS011;36550;50.472;19.744;2023-08-24T12:50:36;3.70;;;1.50;;
50301;SDS011;36550;50.472;19.744;2023-08-24T12:53:22;5.00;;;1.60;;
50301;SDS011;36550;50.472;19.744;2023-08-24T12:56:06;4.70;;;1.70;;
50301;SDS011;36550;50.472;19.744;2023-08-24T12:58:50;6.10;;;1.60;;
50301;SDS011;36550;50.472;19.744;2023-08-24T13:01:34;3.50;;;1.70;;
50301;SDS011;36550;50.472;19.744;2023-08-24T13:04:18;5.00;;;1.70;;
50301;SDS011;36550;50.472;19.744;2023-08-24T13:07:01;5.70;;;1.50;;
50301;SDS011;36550;50.472;19.744;2023-08-24T13:09:46;5.10;;;1.70;;
50301;SDS011;36550;50.472;19.744;2023-08-24T13:12:30;2.60;;;1.50;;
50301;SDS011;36550;50.472;19.744;2023-08-24T13:15:14;3.30;;;1.40;;
50301;SDS011;36550;50.472;19.744;2023-08-24T13:20:43;4.00;;;1.20;;
50301;SDS011;36550;50.472;19.744;2023-08-24T13:23:27;5.80;;;1.60;;
50301;SDS011;36550;50.472;19.744;2023-08-24T13:26:18;2.80;;;1.60;;
50301;SDS011;36550;50.472;19.744;2023-08-24T13:29:03;2.20;;;1.50;;
50301;SDS011;36550;50.472;19.744;2023-08-24T13:31:47;6.20;;;1.90;;
50301;SDS011;36550;50.472;19.744;2023-08-24T13:34:32;3.50;;;1.40;;
50301;SDS011;36550;50.472;19.744;2023-08-24T13:37:16;2.60;;;1.40;;
50301;SDS011;36550;50.472;19.744;2023-08-24T13:40:01;3.40;;;1.60;;
50301;SDS011;36550;50.472;19.744;2023-08-24T13:42:45;3.10;;;1.60;;
50301;SDS011;36550;50.472;19.744;2023-08-24T13:45:29;2.70;;;1.40;;
50301;SDS011;36550;50.472;19.744;2023-08-24T13:50:59;2.90;;;1.70;;
50301;SDS011;36550;50.472;19.744;2023-08-24T13:53:44;4.40;;;1.60;;
50301;SDS011;36550;50.472;19.744;2023-08-24T13:56:28;3.60;;;1.50;;
50301;SDS011;36550;50.472;19.744;2023-08-24T13:59:12;4.20;;;1.70;;
50301;SDS011;36550;50.472;19.744;2023-08-24T14:01:57;4.00;;;1.40;;
50301;SDS011;36550;50.472;19.744;2023-08-24T14:04:41;2.20;;;1.70;;
50301;SDS011;36550;50.472;19.744;2023-08-24T14:07:25;3.70;;;1.70;;
50301;SDS011;36550;50.472;19.744;2023-08-24T14:10:09;3.10;;;1.70;;
50301;SDS011;36550;50.472;19.744;2023-08-24T14:12:53;5.00;;;1.60;;
50301;SDS011;36550;50.472;19.744;2023-08-24T14:15:37;3.60;;;1.40;;
50301;SDS011;36550;50.472;19.744;2023-08-24T14:18:21;4.10;;;1.60;;
50301;SDS011;36550;50.472;19.744;2023-08-24T14:21:06;6.80;;;2.00;;
50301;SDS011;36550;50.472;19.744;2023-08-24T14:23:50;4.30;;;1.70;;
50301;SDS011;36550;50.472;19.744;2023-08-24T14:26:34;5.10;;;1.70;;
50301;SDS011;36550;50.472;19.744;2023-08-24T14:29:18;2.80;;;1.80;;
50301;SDS011;36550;50.472;19.744;2023-08-24T14:32:02;3.40;;;1.80;;
50301;SDS011;36550;50.472;19.744;2023-08-24T14:34:46;2.80;;;1.60;;
50301;SDS011;36550;50.472;19.744;2023-08-24T14:37:32;6.70;;;1.80;;
50301;SDS011;36550;50.472;19.744;2023-08-24T14:40:17;3.70;;;1.60;;
50301;SDS011;36550;50.472;19.744;2023-08-24T14:43:03;2.80;;;1.90;;
50301;SDS011;36550;50.472;19.744;2023-08-24T14:45:47;4.40;;;1.80;;
50301;SDS011;36550;50.472;19.744;2023-08-24T14:48:31;5.10;;;1.80;;
50301;SDS011;36550;50.472;19.744;2023-08-24T14:51:15;4.00;;;1.70;;
50301;SDS011;36550;50.472;19.744;2023-08-24T14:54:00;4.40;;;2.30;;
50301;SDS011;36550;50.472;19.744;2023-08-24T14:56:44;6.30;;;1.80;;
50301;SDS011;36550;50.472;19.744;2023-08-24T14:59:28;3.60;;;1.70;;
50301;SDS011;36550;50.472;19.744;2023-08-24T15:02:12;2.60;;;1.60;;
50301;SDS011;36550;50.472;19.744;2023-08-24T15:04:56;4.10;;;1.80;;
50301;SDS011;36550;50.472;19.744;2023-08-24T15:07:41;2.80;;;1.80;;
50301;SDS011;36550;50.472;19.744;2023-08-24T15:10:25;4.30;;;1.80;;
50301;SDS011;36550;50.472;19.744;2023-08-24T15:13:09;3.40;;;1.80;;
50301;SDS011;36550;50.472;19.744;2023-08-24T15:15:54;11.20;;;1.80;;
50301;SDS011;36550;50.472;19.744;2023-08-24T15:18:40;6.30;;;2.00;;
50301;SDS011;36550;50.472;19.744;2023-08-24T15:21:24;2.20;;;1.60;;
50301;SDS011;36550;50.472;19.744;2023-08-24T15:24:09;3.90;;;1.60;;
50301;SDS011;36550;50.472;19.744;2023-08-24T15:26:53;5.40;;;1.70;;
50301;SDS011;36550;50.472;19.744;2023-08-24T15:29:37;5.20;;;1.90;;
50301;SDS011;36550;50.472;19.744;2023-08-24T15:32:21;3.50;;;1.90;;
50301;SDS011;36550;50.472;19.744;2023-08-24T15:35:05;2.80;;;1.90;;
50301;SDS011;36550;50.472;19.744;2023-08-24T15:37:50;4.30;;;1.80;;
50301;SDS011;36550;50.472;19.744;2023-08-24T15:40:34;5.80;;;1.90;;
50301;SDS011;36550;50.472;19.744;2023-08-24T15:43:18;5.70;;;2.10;;
50301;SDS011;36550;50.472;19.744;2023-08-24T15:46:03;2.40;;;1.90;;
50301;SDS011;36550;50.472;19.744;2023-08-24T15:48:47;5.50;;;2.30;;
50301;SDS011;36550;50.472;19.744;2023-08-24T15:51:31;5.50;;;2.00;;
50301;SDS011;36550;50.472;19.744;2023-08-24T15:54:15;6.60;;;2.20;;
50301;SDS011;36550;50.472;19.744;2023-08-24T15:56:59;6.80;;;2.20;;
50301;SDS011;36550;50.472;19.744;2023-08-24T15:59:43;3.60;;;1.80;;
50301;SDS011;36550;50.472;19.744;2023-08-24T16:02:27;5.00;;;1.80;;
50301;SDS011;36550;50.472;19.744;2023-08-24T16:05:11;5.30;;;2.10;;
50301;SDS011;36550;50.472;19.744;2023-08-24T16:07:56;4.00;;;2.20;;
50301;SDS011;36550;50.472;19.744;2023-08-24T16:10:39;5.30;;;1.80;;
50301;SDS011;36550;50.472;19.744;2023-08-24T16:13:25;3.30;;;1.80;;
50301;SDS011;36550;50.472;19.744;2023-08-24T16:16:09;4.90;;;1.80;;
50301;SDS011;36550;50.472;19.744;2023-08-24T16:18:53;5.50;;;2.20;;
50301;SDS011;36550;50.472;19.744;2023-08-24T16:21:37;5.90;;;1.90;;
50301;SDS011;36550;50.472;19.744;2023-08-24T16:24:21;5.90;;;2.00;;
50301;SDS011;36550;50.472;19.744;2023-08-24T16:27:06;6.20;;;2.10;;
50301;SDS011;36550;50.472;19.744;2023-08-24T16:29:50;3.30;;;1.90;;
50301;SDS011;36550;50.472;19.744;2023-08-24T16:32:34;4.30;;;1.90;;
50301;SDS011;36550;50.472;19.744;2023-08-24T16:35:18;4.10;;;2.00;;
50301;SDS011;36550;50.472;19.744;2023-08-24T16:38:03;4.30;;;2.20;;
50301;SDS011;36550;50.472;19.744;2023-08-24T16:40:47;5.80;;;2.30;;
50301;SDS011;36550;50.472;19.744;2023-08-24T16:43:32;5.10;;;2.30;;
50301;SDS011;36550;50.472;19.744;2023-08-24T16:46:16;4.70;;;2.30;;
50301;SDS011;36550;50.472;19.744;2023-08-24T16:49:00;5.10;;;2.10;;
50301;SDS011;36550;50.472;19.744;2023-08-24T16:51:44;4.30;;;2.40;;
50301;SDS011;36550;50.472;19.744;2023-08-24T16:54:28;6.80;;;2.00;;
50301;SDS011;36550;50.472;19.744;2023-08-24T16:57:12;4.10;;;2.20;;